Time;durP1;ratioP1;P1;durP2;ratioP2;P2;SDS_P1;SDS_P2;PMS_P1;PMS_P2;Temp;Humidity;BMP_temperature;BMP_pressure;BME280_temperature;BME280_humidity;BME280_pressure;Samples;Min_cycle;Max_cycle;Signal;HPM_P1;HPM_P2
2024/02/08 00:02:21;;;;;;;1.10;0.50;;;;;10.40;97154.00;;;;5050650;28;20148;-64
2024/02/08 00:04:51;;;;;;;0.57;0.40;;;;;10.40;97149.00;;;;5050098;28;20566;-64
2024/02/08 00:07:18;;;;;;;1.17;0.50;;;;;10.50;97156.00;;;;5050575;28;20452;-64
2024/02/08 00:09:44;;;;;;;0.95;0.40;;;;;10.50;97167.00;;;;5050741;28;20049;-64
2024/02/08 00:12:11;;;;;;;0.50;0.50;;;;;10.40;97164.00;;;;5051802;28;20511;-63
2024/02/08 00:14:38;;;;;;;0.52;0.50;;;;;10.40;97165.00;;;;5051602;28;20395;-63
2024/02/08 00:17:05;;;;;;;0.40;0.40;;;;;10.40;97163.00;;;;5050694;28;20048;-63
2024/02/08 00:19:32;;;;;;;0.40;0.40;;;;;10.40;97167.00;;;;5051810;28;20045;-65
2024/02/08 00:21:59;;;;;;;0.40;0.40;;;;;10.40;97167.00;;;;5050491;28;20049;-63
2024/02/08 00:24:26;;;;;;;0.88;0.40;;;;;10.40;97164.00;;;;5051187;28;20052;-64
2024/02/08 00:26:55;;;;;;;0.43;0.43;;;;;10.40;97161.00;;;;5051676;28;20137;-64
2024/02/08 00:29:24;;;;;;;0.75;0.50;;;;;10.50;97156.00;;;;5051871;28;20045;-64
2024/02/08 00:31:51;;;;;;;0.50;0.40;;;;;10.50;97159.00;;;;5051672;28;20409;-66
2024/02/08 00:34:18;;;;;;;0.50;0.50;;;;;10.50;97154.00;;;;5051219;28;20052;-62
2024/02/08 00:36:45;;;;;;;1.65;0.50;;;;;10.60;97155.00;;;;5050420;28;20494;-65
2024/02/08 00:39:11;;;;;;;0.70;0.47;;;;;10.60;97152.00;;;;5051757;28;20044;-64
2024/02/08 00:41:38;;;;;;;0.30;0.30;;;;;10.60;97151.00;;;;5050806;28;20052;-63
2024/02/08 00:44:04;;;;;;;0.30;0.30;;;;;10.60;97139.00;;;;5054798;28;20591;-64
2024/02/08 00:46:31;;;;;;;0.50;0.50;;;;;10.60;97139.00;;;;5055348;28;20091;-66
2024/02/08 00:48:58;;;;;;;0.60;0.47;;;;;10.60;97145.00;;;;5055442;28;20529;-64
2024/02/08 00:51:24;;;;;;;0.60;0.60;;;;;10.70;97142.00;;;;5055400;28;20128;-64
2024/02/08 00:53:51;;;;;;;0.40;0.40;;;;;10.70;97146.00;;;;5054815;28;20047;-63
2024/02/08 00:56:20;;;;;;;0.40;0.40;;;;;10.70;97149.00;;;;5054143;28;20459;-65
2024/02/08 00:58:47;;;;;;;0.40;0.40;;;;;10.70;97145.00;;;;5055384;28;20071;-64
2024/02/08 01:01:14;;;;;;;0.35;0.35;;;;;10.70;97143.00;;;;5053973;28;20079;-65
2024/02/08 01:03:40;;;;;;;0.50;0.50;;;;;10.70;97142.00;;;;5053405;28;20487;-64
2024/02/08 01:06:07;;;;;;;0.40;0.40;;;;;10.70;97138.00;;;;5055145;28;20056;-63
2024/02/08 01:08:34;;;;;;;0.30;0.30;;;;;10.70;97139.00;;;;5055223;28;20486;-65
2024/02/08 01:11:00;;;;;;;0.57;0.57;;;;;10.70;97136.00;;;;5054937;28;20121;-64
2024/02/08 01:13:28;;;;;;;0.65;0.65;;;;;10.80;97138.00;;;;5053036;28;20071;-64
2024/02/08 01:15:56;;;;;;;0.43;0.43;;;;;10.80;97138.00;;;;5055024;28;20166;-65
2024/02/08 01:18:23;;;;;;;0.40;0.40;;;;;10.80;97133.00;;;;5053803;28;20048;-63
2024/02/08 01:20:50;;;;;;;0.68;0.43;;;;;10.80;97136.00;;;;5054811;28;20106;-63
2024/02/08 01:23:17;;;;;;;0.32;0.32;;;;;10.80;97140.00;;;;5053626;28;20045;-64
2024/02/08 01:25:46;;;;;;;0.57;0.50;;;;;10.80;97140.00;;;;5054379;28;20044;-63
2024/02/08 01:28:13;;;;;;;0.45;0.40;;;;;10.80;97151.00;;;;5053519;28;20121;-64
2024/02/08 01:30:40;;;;;;;0.30;0.30;;;;;10.80;97144.00;;;;5054769;28;20041;-63
2024/02/08 01:33:06;;;;;;;0.40;0.40;;;;;10.70;97145.00;;;;5054691;28;20052;-63
2024/02/08 01:35:33;;;;;;;0.30;0.30;;;;;10.70;97145.00;;;;5054226;28;20135;-63
2024/02/08 01:38:00;;;;;;;0.32;0.32;;;;;10.80;97140.00;;;;5054600;28;20041;-64
2024/02/08 01:40:26;;;;;;;0.30;0.30;;;;;10.80;97144.00;;;;5054491;28;20079;-63
2024/02/08 01:42:57;;;;;;;0.40;0.40;;;;;10.80;97145.00;;;;5054434;28;20053;-64
2024/02/08 01:45:38;;;;;;;0.38;0.38;;;;;10.80;97147.00;;;;5053889;28;20559;-64
2024/02/08 01:48:15;;;;;;;0.40;0.40;;;;;10.80;97142.00;;;;5053331;28;20067;-64
2024/02/08 01:50:51;;;;;;;0.43;0.30;;;;;10.80;97143.00;;;;5054824;28;20045;-64
2024/02/08 01:53:27;;;;;;;0.30;0.30;;;;;10.80;97140.00;;;;5053477;28;20037;-64
2024/02/08 01:55:58;;;;;;;0.38;0.38;;;;;10.80;97139.00;;;;5054810;28;20041;-64
2024/02/08 01:58:26;;;;;;;0.30;0.30;;;;;10.80;97138.00;;;;5054461;28;20132;-64
2024/02/08 02:00:57;;;;;;;0.38;0.38;;;;;10.80;97136.00;;;;5053366;28;20107;-64
2024/02/08 02:03:24;;;;;;;0.30;0.30;;;;;10.80;97133.00;;;;5053741;28;20482;-65
2024/02/08 02:05:51;;;;;;;1.42;0.45;;;;;10.80;97139.00;;;;5054215;28;20099;-64
2024/02/08 02:08:22;;;;;;;0.30;0.30;;;;;10.80;97137.00;;;;5054319;28;20124;-63
2024/02/08 02:11:11;;;;;;;0.30;0.30;;;;;10.80;97140.00;;;;5054229;28;20052;-64
2024/02/08 02:13:39;;;;;;;0.85;0.47;;;;;10.70;97131.00;;;;5053767;28;20052;-65
2024/02/08 02:16:06;;;;;;;0.30;0.30;;;;;10.70;97126.00;;;;5054287;28;20040;-65
2024/02/08 02:18:33;;;;;;;0.38;0.30;;;;;10.70;97129.00;;;;5036316;28;20052;-64
2024/02/08 02:21:01;;;;;;;0.40;0.40;;;;;10.70;97126.00;;;;5054928;28;20041;-64
2024/02/08 02:23:28;;;;;;;0.20;0.20;;;;;10.70;97118.00;;;;5053264;28;20072;-65
2024/02/08 02:25:54;;;;;;;0.40;0.40;;;;;10.70;97125.00;;;;5053879;28;20064;-64
2024/02/08 02:28:21;;;;;;;0.40;0.40;;;;;10.70;97119.00;;;;5052417;28;20051;-63
2024/02/08 02:30:50;;;;;;;0.32;0.32;;;;;10.70;97114.00;;;;5053683;28;20187;-65
2024/02/08 02:33:19;;;;;;;0.30;0.30;;;;;10.70;97109.00;;;;5053806;28;20064;-64
2024/02/08 02:35:49;;;;;;;0.30;0.30;;;;;10.70;97109.00;;;;5053234;28;20041;-64
2024/02/08 02:38:17;;;;;;;0.20;0.20;;;;;10.70;97112.00;;;;5052373;28;20045;-64
2024/02/08 02:40:47;;;;;;;0.30;0.30;;;;;10.70;97114.00;;;;5053504;28;20053;-64
2024/02/08 02:43:14;;;;;;;0.30;0.30;;;;;10.70;97103.00;;;;5053498;28;20048;-63
2024/02/08 02:45:41;;;;;;;0.30;0.30;;;;;10.70;97103.00;;;;5052969;28;20040;-64
2024/02/08 02:48:08;;;;;;;0.30;0.30;;;;;10.80;97091.00;;;;5053368;28;20076;-64
2024/02/08 02:50:41;;;;;;;0.30;0.30;;;;;10.80;97098.00;;;;5053346;28;20416;-64
2024/02/08 02:53:08;;;;;;;0.35;0.35;;;;;10.80;97096.00;;;;5053355;28;20045;-64
2024/02/08 02:55:36;;;;;;;0.30;0.30;;;;;10.80;97094.00;;;;5051566;28;20099;-64
2024/02/08 02:58:04;;;;;;;0.30;0.30;;;;;10.90;97098.00;;;;5053086;28;20045;-64
2024/02/08 03:00:33;;;;;;;0.40;0.40;;;;;10.80;97105.00;;;;5053108;28;20049;-63
2024/02/08 03:03:08;;;;;;;0.40;0.40;;;;;10.90;97097.00;;;;5053398;28;20041;-64
2024/02/08 03:05:39;;;;;;;0.47;0.40;;;;;10.90;97093.00;;;;5052424;28;20517;-65
2024/02/08 03:08:06;;;;;;;0.30;0.30;;;;;10.90;97090.00;;;;5052881;28;20052;-64
2024/02/08 03:10:34;;;;;;;2.38;0.40;;;;;10.90;97103.00;;;;5052694;28;20115;-64
2024/02/08 03:13:01;;;;;;;1.42;0.30;;;;;10.80;97094.00;;;;5051528;28;20532;-64
2024/02/08 03:15:27;;;;;;;0.30;0.30;;;;;10.80;97094.00;;;;5052187;28;20055;-63
2024/02/08 03:17:54;;;;;;;0.30;0.30;;;;;10.80;97088.00;;;;5052661;28;20111;-63
2024/02/08 03:20:24;;;;;;;0.30;0.30;;;;;10.80;97078.00;;;;5052536;28;20067;-65
2024/02/08 03:22:51;;;;;;;0.85;0.60;;;;;10.80;97082.00;;;;5052413;28;20051;-65
2024/02/08 03:25:18;;;;;;;1.10;0.40;;;;;10.80;97083.00;;;;5052084;28;20071;-65
2024/02/08 03:27:44;;;;;;;0.85;0.40;;;;;10.80;97087.00;;;;5052484;28;20413;-65
2024/02/08 03:30:30;;;;;;;0.30;0.30;;;;;10.80;97093.00;;;;5052391;28;20402;-65
2024/02/08 03:32:58;;;;;;;1.33;0.40;;;;;10.80;97084.00;;;;5052450;28;20072;-65
2024/02/08 03:35:29;;;;;;;1.25;0.32;;;;;10.80;97085.00;;;;5051949;28;20045;-65
2024/02/08 03:37:56;;;;;;;0.55;0.55;;;;;10.90;97085.00;;;;5052438;28;20051;-65
2024/02/08 03:40:25;;;;;;;0.32;0.32;;;;;10.90;97089.00;;;;5052415;28;20041;-65
2024/02/08 03:42:53;;;;;;;0.93;0.50;;;;;10.90;97082.00;;;;5052435;28;20041;-64
2024/02/08 03:45:29;;;;;;;0.40;0.40;;;;;10.90;97077.00;;;;5051612;28;20126;-65
2024/02/08 03:47:59;;;;;;;0.30;0.30;;;;;10.90;97078.00;;;;5051075;28;20041;-64
2024/02/08 03:50:33;;;;;;;0.30;0.30;;;;;10.90;97086.00;;;;5052137;28;20049;-66
2024/02/08 03:53:12;;;;;;;0.30;0.30;;;;;10.90;97084.00;;;;5052184;28;20498;-64
2024/02/08 03:55:43;;;;;;;0.30;0.30;;;;;10.90;97085.00;;;;5051615;28;20124;-64
2024/02/08 03:58:13;;;;;;;0.30;0.30;;;;;10.90;97073.00;;;;5052053;28;20114;-64
2024/02/08 04:00:46;;;;;;;0.35;0.35;;;;;10.90;97074.00;;;;5051885;28;20061;-63
2024/02/08 04:03:43;;;;;;;1.13;0.40;;;;;10.90;97075.00;;;;5051990;28;20083;-64
2024/02/08 04:06:16;;;;;;;0.45;0.45;;;;;11.00;97072.00;;;;5051718;28;20049;-64
2024/02/08 04:09:06;;;;;;;0.40;0.40;;;;;11.00;97068.00;;;;5051959;28;20037;-64
2024/02/08 04:55:32;;;;;;;1.23;1.13;;;;;11.00;97069.00;;;;5054908;28;20466;-64
2024/02/08 04:57:59;;;;;;;0.50;0.50;;;;;11.00;97066.00;;;;5055311;28;20419;-64
2024/02/08 05:00:45;;;;;;;0.45;0.45;;;;;10.90;97058.00;;;;5055084;28;20387;-64
2024/02/08 05:03:16;;;;;;;0.40;0.40;;;;;11.00;97058.00;;;;5055132;28;20132;-64
2024/02/08 05:05:46;;;;;;;0.45;0.45;;;;;11.00;97065.00;;;;5054585;28;20041;-65
2024/02/08 05:08:15;;;;;;;0.40;0.40;;;;;11.00;97055.00;;;;5055017;28;20048;-65
2024/02/08 05:10:45;;;;;;;0.32;0.32;;;;;11.00;97058.00;;;;5054974;28;20041;-64
2024/02/08 05:13:13;;;;;;;0.32;0.32;;;;;11.00;97062.00;;;;5054767;28;20048;-63
2024/02/08 05:15:42;;;;;;;0.28;0.28;;;;;11.00;97046.00;;;;5054443;28;20041;-64
2024/02/08 05:18:11;;;;;;;0.30;0.30;;;;;11.00;97048.00;;;;5053704;28;20090;-65
2024/02/08 05:20:41;;;;;;;0.30;0.30;;;;;11.00;97047.00;;;;5054851;28;20045;-64
2024/02/08 05:23:08;;;;;;;0.30;0.30;;;;;10.90;97040.00;;;;5053568;28;20048;-64
2024/02/08 05:25:35;;;;;;;0.30;0.30;;;;;10.90;97045.00;;;;5053958;28;20037;-66
2024/02/08 05:28:03;;;;;;;0.30;0.30;;;;;10.90;97056.00;;;;5054344;28;20045;-66
2024/02/08 05:30:32;;;;;;;0.45;0.40;;;;;10.90;97048.00;;;;5053581;28;20056;-65
2024/02/08 05:33:01;;;;;;;0.38;0.38;;;;;10.90;97040.00;;;;5054765;28;20048;-66
2024/02/08 05:35:32;;;;;;;0.30;0.30;;;;;10.90;97046.00;;;;5054215;28;20098;-65
2024/02/08 05:38:00;;;;;;;0.52;0.43;;;;;10.90;97033.00;;;;5054756;28;20124;-65
2024/02/08 05:40:30;;;;;;;0.40;0.40;;;;;10.90;97038.00;;;;5053424;28;20041;-65
2024/02/08 05:42:58;;;;;;;0.30;0.30;;;;;10.90;97042.00;;;;5053713;28;20045;-65
2024/02/08 05:45:30;;;;;;;1.40;0.60;;;;;10.90;97038.00;;;;5053884;28;20049;-64
2024/02/08 05:48:05;;;;;;;0.30;0.30;;;;;10.90;97040.00;;;;5053369;28;20502;-65
2024/02/08 05:50:33;;;;;;;0.45;0.45;;;;;10.90;97037.00;;;;5054873;28;20083;-64
2024/02/08 05:53:06;;;;;;;0.40;0.40;;;;;10.90;97037.00;;;;5054217;28;20132;-65
2024/02/08 05:55:34;;;;;;;0.40;0.40;;;;;10.90;97035.00;;;;5056696;28;20049;-64
2024/02/08 05:58:06;;;;;;;0.40;0.40;;;;;11.00;97033.00;;;;5057385;28;20077;-64
2024/02/08 06:00:36;;;;;;;0.52;0.50;;;;;11.00;97038.00;;;;5057018;28;20049;-64
2024/02/08 06:03:03;;;;;;;0.85;0.50;;;;;11.00;97029.00;;;;5061179;28;20059;-64
2024/02/08 06:05:33;;;;;;;1.92;0.50;;;;;11.00;97026.00;;;;5061906;28;20051;-64
2024/02/08 06:08:02;;;;;;;1.20;0.50;;;;;10.90;97035.00;;;;5060424;28;20051;-65
2024/02/08 06:10:52;;;;;;;0.60;0.47;;;;;11.00;97024.00;;;;5061246;28;20037;-64
2024/02/08 06:13:22;;;;;;;0.30;0.30;;;;;11.00;97025.00;;;;5060420;28;20145;-64
2024/02/08 06:15:50;;;;;;;0.32;0.20;;;;;11.00;97024.00;;;;5061660;28;20095;-64
2024/02/08 06:18:25;;;;;;;0.47;0.47;;;;;11.00;97023.00;;;;5059229;28;20040;-64
2024/02/08 06:20:59;;;;;;;0.60;0.40;;;;;11.00;97025.00;;;;5054061;28;20132;-64
2024/02/08 06:23:34;;;;;;;;;;;;;11.00;97028.00;;;;5058008;28;20053;-64
2024/02/08 06:28:46;;;;;;;0.50;0.50;;;;;10.90;97032.00;;;;5058827;28;20478;-64
2024/02/08 06:31:19;;;;;;;0.68;0.60;;;;;10.90;97031.00;;;;5056457;28;20128;-66
2024/02/08 06:36:57;;;;;;;2.38;0.70;;;;;10.90;97037.00;;;;5052298;28;20555;-64
2024/02/08 06:39:29;;;;;;;1.48;1.17;;;;;11.00;97028.00;;;;5052904;28;20037;-64
2024/02/08 06:42:07;;;;;;;0.60;0.60;;;;;11.10;97033.00;;;;5053359;28;20053;-65
2024/02/08 07:37:18;;;;;;;1.02;0.98;;;;;11.20;97013.00;;;;5051346;28;20494;-65
2024/02/08 07:40:00;;;;;;;0.88;0.88;;;;;11.20;97019.00;;;;5052461;28;20125;-65
2024/02/08 07:42:41;;;;;;;0.80;0.80;;;;;11.20;97020.00;;;;5052301;28;20379;-64
2024/02/08 07:45:12;;;;;;;1.00;0.90;;;;;11.20;97011.00;;;;5050355;28;20045;-63
2024/02/08 07:47:39;;;;;;;1.48;0.95;;;;;11.30;97012.00;;;;5052251;28;20053;-63
2024/02/08 07:50:08;;;;;;;0.73;0.70;;;;;11.30;97012.00;;;;5052037;28;20063;-63
2024/02/08 07:52:45;;;;;;;0.80;0.80;;;;;11.30;97030.00;;;;5051998;28;20041;-63
2024/02/08 07:55:20;;;;;;;0.88;0.85;;;;;11.30;97027.00;;;;5051451;28;20556;-63
2024/02/08 07:57:58;;;;;;;0.80;0.80;;;;;11.30;97036.00;;;;5052076;28;20048;-63
2024/02/08 08:03:15;;;;;;;0.90;0.90;;;;;11.40;97022.00;;;;5052068;28;20059;-63
2024/02/08 08:05:44;;;;;;;1.20;0.80;;;;;11.30;97019.00;;;;5051413;28;20061;-62
2024/02/08 08:11:02;;;;;;;0.82;0.80;;;;;11.30;97024.00;;;;5051901;28;20553;-63
2024/02/08 08:19:10;;;;;;;0.80;0.80;;;;;11.40;97029.00;;;;5051930;28;20090;-63
2024/02/08 08:24:27;;;;;;;3.03;1.00;;;;;11.40;97019.00;;;;5051265;28;20651;-61
2024/02/08 08:27:06;;;;;;;1.55;1.10;;;;;11.50;97020.00;;;;5051796;28;20044;-62
2024/02/08 08:29:42;;;;;;;1.10;1.00;;;;;11.50;97018.00;;;;5050622;28;20053;-62
2024/02/08 08:38:28;;;;;;;1.08;1.00;;;;;11.50;97004.00;;;;5051822;28;20072;-62
2024/02/08 08:40:38;;;;;;;1.23;0.93;;;;;11.50;97015.00;;;;5051719;28;20066;-62
2024/02/08 08:43:10;;;;;;;1.38;0.90;;;;;11.40;97014.00;;;;5034228;28;20064;-62
2024/02/08 08:45:40;;;;;;;0.90;0.88;;;;;11.40;97014.00;;;;5051250;28;20102;-62
2024/02/08 08:48:08;;;;;;;1.95;1.40;;;;;11.40;97010.00;;;;5051798;28;20045;-62
2024/02/08 08:50:35;;;;;;;0.90;0.80;;;;;11.40;97006.00;;;;5051549;28;20048;-61
2024/02/08 08:53:16;;;;;;;1.10;1.00;;;;;11.40;97009.00;;;;5051571;28;20049;-61
2024/02/08 08:55:49;;;;;;;0.82;0.82;;;;;11.50;97005.00;;;;5051178;28;20060;-61
2024/02/08 08:58:17;;;;;;;0.70;0.70;;;;;11.50;97006.00;;;;5051575;28;20132;-62
2024/02/08 09:00:46;;;;;;;1.60;0.93;;;;;11.60;97000.00;;;;5051584;28;20037;-60
2024/02/08 09:03:26;;;;;;;0.90;0.80;;;;;11.60;97008.00;;;;5052879;28;20059;-60
2024/02/08 09:05:57;;;;;;;1.08;0.77;;;;;11.60;96997.00;;;;5055102;28;20041;-61
2024/02/08 09:08:42;;;;;;;0.63;0.63;;;;;11.70;97004.00;;;;5055234;28;20053;-62
2024/02/08 09:11:12;;;;;;;0.70;0.70;;;;;11.70;96996.00;;;;5055414;28;20038;-62
2024/02/08 09:13:42;;;;;;;3.30;1.52;;;;;11.70;96991.00;;;;5054470;28;20049;-62
2024/02/08 09:21:32;;;;;;;1.10;0.88;;;;;11.90;96988.00;;;;5054999;28;20060;-62
2024/02/08 09:24:03;;;;;;;4.22;3.83;;;;;12.00;96986.00;;;;5054727;28;20069;-62
2024/02/08 09:26:48;;;;;;;1.70;1.20;;;;;12.10;96986.00;;;;5054888;28;20049;-62
2024/02/08 09:29:23;;;;;;;1.15;1.05;;;;;12.10;96986.00;;;;5054778;28;20047;-62
2024/02/08 09:31:58;;;;;;;1.20;1.00;;;;;12.10;96986.00;;;;5054886;28;20063;-62
2024/02/08 09:34:37;;;;;;;1.40;1.30;;;;;12.20;96988.00;;;;5053025;28;20049;-61
2024/02/08 09:37:08;;;;;;;0.63;0.60;;;;;12.10;96987.00;;;;5054780;28;20044;-64
2024/02/08 09:42:37;;;;;;;1.30;1.20;;;;;12.10;96986.00;;;;5054382;28;20064;-62
2024/02/08 09:45:18;;;;;;;1.60;1.50;;;;;12.10;96980.00;;;;5052991;28;20053;-62
2024/02/08 09:47:51;;;;;;;0.80;0.80;;;;;12.10;96976.00;;;;5053397;28;20044;-62
2024/02/08 09:50:35;;;;;;;0.90;0.90;;;;;12.10;96978.00;;;;5054479;28;20122;-62
2024/02/08 09:53:15;;;;;;;1.30;1.20;;;;;12.00;96969.00;;;;5054378;28;20127;-64
2024/02/08 09:56:15;;;;;;;2.83;1.50;;;;;12.00;96974.00;;;;5053980;28;20053;-62
2024/02/08 09:58:55;;;;;;;3.45;2.00;;;;;12.00;96969.00;;;;5054297;28;20057;-61
2024/02/08 10:01:43;;;;;;;1.10;1.00;;;;;12.00;96966.00;;;;5054198;28;20048;-61
2024/02/08 10:04:19;;;;;;;1.10;1.00;;;;;12.00;96967.00;;;;5052435;28;20078;-61
2024/02/08 10:06:58;;;;;;;0.98;0.90;;;;;12.00;96970.00;;;;5054123;28;20383;-61
2024/02/08 10:09:46;;;;;;;1.20;1.00;;;;;12.00;96963.00;;;;5054097;28;20452;-60
2024/02/08 10:12:40;;;;;;;1.15;0.95;;;;;12.10;96962.00;;;;5054006;28;20102;-61
2024/02/08 10:15:09;;;;;;;2.03;0.77;;;;;12.10;96959.00;;;;5052090;28;20064;-63
2024/02/08 10:17:42;;;;;;;0.73;0.70;;;;;12.20;96959.00;;;;5054045;28;20075;-60
2024/02/08 10:28:09;;;;;;;2.65;1.10;;;;;12.20;96939.00;;;;5052524;28;20049;-61
2024/02/08 10:30:44;;;;;;;1.00;0.90;;;;;12.30;96934.00;;;;5053670;28;20045;-61
2024/02/08 10:33:24;;;;;;;0.95;0.70;;;;;12.40;96935.00;;;;5052608;28;20513;-61
2024/02/08 10:35:53;;;;;;;1.23;1.00;;;;;12.40;96930.00;;;;5053762;28;20124;-62
2024/02/08 10:38:30;;;;;;;0.70;0.70;;;;;12.40;96925.00;;;;5052389;28;20060;-63
2024/02/08 10:40:59;;;;;;;0.70;0.70;;;;;12.40;96925.00;;;;5053369;28;20530;-63
2024/02/08 10:43:25;;;;;;;1.20;1.10;;;;;12.50;96914.00;;;;5052818;28;20102;-61
2024/02/08 10:45:54;;;;;;;1.85;0.90;;;;;12.50;96926.00;;;;5053485;28;20128;-62
2024/02/08 10:48:28;;;;;;;2.38;0.60;;;;;12.50;96913.00;;;;5052242;28;20041;-62
2024/02/08 10:51:02;;;;;;;1.40;0.60;;;;;12.50;96913.00;;;;5053062;28;20072;-62
2024/02/08 10:53:49;;;;;;;0.82;0.77;;;;;12.50;96900.00;;;;5052797;28;20059;-61
2024/02/08 10:56:18;;;;;;;0.55;0.55;;;;;12.60;96905.00;;;;5053296;28;20056;-62
2024/02/08 10:59:09;;;;;;;1.05;0.47;;;;;12.70;96904.00;;;;5051909;28;20055;-61
2024/02/08 11:04:28;;;;;;;6.45;0.80;;;;;12.80;96900.00;;;;5051023;28;20418;-62
2024/02/08 11:07:18;;;;;;;0.60;0.60;;;;;12.70;96893.00;;;;5051814;28;20484;-62
2024/02/08 11:09:45;;;;;;;0.73;0.55;;;;;12.80;96891.00;;;;5053048;28;20045;-63
2024/02/08 11:12:29;;;;;;;0.50;0.50;;;;;12.70;96878.00;;;;5052707;28;20041;-62
2024/02/08 11:15:13;;;;;;;0.80;0.80;;;;;12.70;96883.00;;;;5052362;28;20053;-62
2024/02/08 11:17:49;;;;;;;1.80;1.00;;;;;12.60;96889.00;;;;5052765;28;20052;-62
2024/02/08 11:20:44;;;;;;;3.33;1.20;;;;;12.60;96881.00;;;;5052796;28;20030;-62
2024/02/08 11:23:18;;;;;;;1.58;1.05;;;;;12.50;96873.00;;;;5052763;28;20092;-62
2024/02/08 11:25:45;;;;;;;1.67;0.90;;;;;12.50;96870.00;;;;5051818;28;20472;-62
2024/02/08 11:28:15;;;;;;;1.35;0.90;;;;;12.50;96875.00;;;;5052498;28;20391;-62
2024/02/08 11:30:53;;;;;;;1.33;0.90;;;;;12.50;96876.00;;;;5052458;28;20405;-63
2024/02/08 11:33:32;;;;;;;0.85;0.70;;;;;12.50;96857.00;;;;5052505;28;20051;-63
2024/02/08 11:36:12;;;;;;;0.85;0.80;;;;;12.50;96869.00;;;;5052566;28;20059;-61
2024/02/08 11:38:46;;;;;;;1.48;1.00;;;;;12.50;96861.00;;;;5052378;28;20379;-63
2024/02/08 11:41:18;;;;;;;2.30;0.93;;;;;12.50;96861.00;;;;5052416;28;20087;-63
2024/02/08 11:43:48;;;;;;;1.60;0.80;;;;;12.50;96866.00;;;;5051669;28;20470;-62
2024/02/08 11:46:18;;;;;;;0.90;0.80;;;;;12.50;96851.00;;;;5052334;28;20049;-61
2024/02/08 11:48:46;;;;;;;1.67;0.90;;;;;12.50;96853.00;;;;5052257;28;20045;-62
2024/02/08 11:51:16;;;;;;;2.40;1.00;;;;;12.50;96855.00;;;;5052203;28;20043;-64
2024/02/08 11:53:44;;;;;;;1.08;0.85;;;;;12.50;96857.00;;;;5051828;28;20049;-61
2024/02/08 11:56:12;;;;;;;2.25;0.98;;;;;12.50;96855.00;;;;5052426;28;20119;-62
2024/02/08 11:58:48;;;;;;;2.60;0.90;;;;;12.50;96841.00;;;;5050948;28;20492;-61
2024/02/08 12:01:17;;;;;;;3.08;0.95;;;;;12.40;96843.00;;;;5052306;28;20049;-61
2024/02/08 12:03:44;;;;;;;1.13;0.90;;;;;12.30;96841.00;;;;5051465;28;20044;-62
2024/02/08 12:06:17;;;;;;;1.98;1.10;;;;;12.40;96847.00;;;;5052112;28;20498;-61
2024/02/08 12:08:58;;;;;;;3.97;1.08;;;;;12.30;96841.00;;;;5050817;28;20063;-62
2024/02/08 12:11:32;;;;;;;4.60;1.75;;;;;12.30;96833.00;;;;5051960;28;20044;-60
2024/02/08 12:14:10;;;;;;;4.67;1.90;;;;;12.30;96839.00;;;;5051233;28;20053;-63
2024/02/08 12:16:57;;;;;;;10.27;2.53;;;;;12.30;96829.00;;;;5052117;28;20349;-63
2024/02/08 12:19:25;;;;;;;8.43;2.15;;;;;12.30;96825.00;;;;5051891;28;20049;-59
2024/02/08 12:22:04;;;;;;;12.48;2.75;;;;;12.30;96831.00;;;;5051880;28;20052;-60
2024/02/08 12:24:32;;;;;;;4.75;2.28;;;;;12.40;96826.00;;;;5051380;28;20120;-60
2024/02/08 12:27:12;;;;;;;13.32;3.78;;;;;12.50;96825.00;;;;5052108;28;20413;-60
2024/02/08 12:29:46;;;;;;;12.27;3.65;;;;;12.70;96826.00;;;;5051751;28;20064;-60
2024/02/08 12:32:16;;;;;;;14.10;4.13;;;;;12.90;96818.00;;;;5051780;28;20041;-60
2024/02/08 12:34:47;;;;;;;16.85;4.20;;;;;13.00;96817.00;;;;5051106;28;20044;-61
2024/02/08 12:37:16;;;;;;;19.52;4.25;;;;;13.00;96817.00;;;;5051855;28;20505;-60
2024/02/08 12:39:44;;;;;;;13.07;3.63;;;;;13.00;96820.00;;;;5055656;28;20049;-61
2024/02/08 12:42:14;;;;;;;15.95;4.20;;;;;13.00;96828.00;;;;5055616;28;20051;-59
2024/02/08 12:44:48;;;;;;;18.88;5.20;;;;;13.10;96823.00;;;;5055111;28;20486;-60
2024/02/08 12:47:18;;;;;;;15.10;3.95;;;;;13.00;96823.00;;;;5055565;28;20077;-59
2024/02/08 12:49:46;;;;;;;21.73;4.53;;;;;13.00;96815.00;;;;5055619;28;20072;-58
2024/02/08 12:52:15;;;;;;;15.60;4.60;;;;;13.00;96818.00;;;;5055362;28;20049;-60
2024/02/08 12:54:52;;;;;;;13.50;3.50;;;;;12.90;96814.00;;;;5054971;28;20049;-59
2024/02/08 12:57:21;;;;;;;12.52;4.35;;;;;12.90;96809.00;;;;5055425;28;20064;-60
2024/02/08 12:59:47;;;;;;;15.05;4.05;;;;;12.80;96810.00;;;;5055405;28;20041;-59
2024/02/08 13:02:18;;;;;;;16.40;5.30;;;;;12.80;96803.00;;;;5055304;28;20049;-59
2024/02/08 13:04:48;;;;;;;18.58;4.90;;;;;12.80;96803.00;;;;5053579;28;20401;-60
2024/02/08 13:07:16;;;;;;;10.98;4.03;;;;;12.80;96797.00;;;;5055301;28;20553;-59
2024/02/08 13:09:44;;;;;;;18.52;4.53;;;;;12.80;96793.00;;;;5054033;28;20106;-60
2024/02/08 13:12:17;;;;;;;18.08;4.07;;;;;12.80;96796.00;;;;5053637;28;20080;-60
2024/02/08 13:14:50;;;;;;;12.75;4.25;;;;;12.90;96783.00;;;;5054513;28;20049;-60
2024/02/08 13:17:21;;;;;;;16.02;4.38;;;;;12.90;96793.00;;;;5055064;28;20410;-60
2024/02/08 13:19:54;;;;;;;17.48;4.68;;;;;13.00;96789.00;;;;5055070;28;20120;-60
2024/02/08 13:22:24;;;;;;;29.52;5.47;;;;;13.00;96796.00;;;;5053838;28;20072;-60
2024/02/08 13:24:52;;;;;;;14.73;4.07;;;;;13.00;96779.00;;;;5053181;28;20102;-60
2024/02/08 13:27:24;;;;;;;15.13;4.30;;;;;13.00;96770.00;;;;5054836;28;20071;-60
2024/02/08 13:29:52;;;;;;;18.88;4.25;;;;;13.00;96774.00;;;;5054908;28;20052;-60
2024/02/08 13:32:24;;;;;;;11.98;3.40;;;;;13.00;96765.00;;;;5054815;28;20536;-60
2024/02/08 13:34:52;;;;;;;19.88;5.32;;;;;13.10;96761.00;;;;5054274;28;20494;-60
2024/02/08 13:37:21;;;;;;;13.20;4.30;;;;;13.20;96767.00;;;;5054648;28;20041;-60
2024/02/08 13:39:50;;;;;;;19.95;4.07;;;;;13.30;96766.00;;;;5054777;28;20136;-61
2024/02/08 13:42:20;;;;;;;24.13;4.70;;;;;13.40;96766.00;;;;5054612;28;20590;-61
2024/02/08 13:44:48;;;;;;;19.02;4.60;;;;;13.40;96761.00;;;;5054159;28;20144;-62
2024/02/08 13:47:15;;;;;;;17.88;4.75;;;;;13.30;96749.00;;;;5053471;28;20084;-61
2024/02/08 13:49:49;;;;;;;27.00;5.40;;;;;13.20;96754.00;;;;5054245;28;20505;-62
2024/02/08 13:52:17;;;;;;;18.88;4.18;;;;;13.10;96742.00;;;;5054450;28;20620;-62
2024/02/08 13:54:48;;;;;;;16.92;4.93;;;;;13.00;96758.00;;;;5053775;28;20053;-61
2024/02/08 13:57:14;;;;;;;21.08;5.53;;;;;13.00;96759.00;;;;5054389;28;20095;-63
2024/02/08 13:59:46;;;;;;;24.95;5.22;;;;;13.00;96736.00;;;;5054365;28;20083;-61
2024/02/08 14:02:17;;;;;;;23.80;4.80;;;;;13.10;96748.00;;;;5054214;28;20048;-60
2024/02/08 14:04:50;;;;;;;15.95;4.85;;;;;13.10;96753.00;;;;5053565;28;20514;-60
2024/02/08 14:07:28;;;;;;;20.05;4.95;;;;;13.10;96747.00;;;;5053931;28;20049;-63
2024/02/08 14:10:06;;;;;;;21.13;5.53;;;;;13.10;96748.00;;;;5054258;28;20107;-61
2024/02/08 14:12:33;;;;;;;24.42;4.97;;;;;13.10;96740.00;;;;5054076;28;20041;-61
2024/02/08 14:15:06;;;;;;;16.42;4.63;;;;;13.00;96735.00;;;;5053500;28;20077;-61
2024/02/08 14:17:37;;;;;;;28.13;5.50;;;;;13.00;96729.00;;;;5052676;28;20056;-61
2024/02/08 14:20:30;;;;;;;18.33;5.35;;;;;13.00;96724.00;;;;5053964;28;20131;-62
2024/02/08 14:22:59;;;;;;;15.07;4.38;;;;;13.00;96721.00;;;;5052510;28;20049;-62
2024/02/08 14:25:37;;;;;;;17.00;4.35;;;;;13.10;96721.00;;;;5053272;28;20073;-61
2024/02/08 14:28:09;;;;;;;15.98;4.05;;;;;13.10;96714.00;;;;5053666;28;20489;-61
2024/02/08 14:30:36;;;;;;;18.67;5.63;;;;;13.10;96711.00;;;;5053563;28;20045;-61
2024/02/08 14:33:03;;;;;;;20.92;4.75;;;;;13.10;96707.00;;;;5052484;28;20502;-61
2024/02/08 14:35:31;;;;;;;21.67;5.20;;;;;13.10;96716.00;;;;5053036;28;20124;-62
2024/02/08 14:37:59;;;;;;;15.48;4.65;;;;;13.10;96703.00;;;;5053539;28;20045;-61
2024/02/08 14:40:27;;;;;;;12.00;4.15;;;;;13.10;96710.00;;;;5053623;28;20375;-61
2024/02/08 14:42:57;;;;;;;18.15;3.95;;;;;13.10;96701.00;;;;5053482;28;20047;-61
2024/02/08 14:45:24;;;;;;;18.25;4.13;;;;;13.10;96699.00;;;;5035491;28;20048;-62
2024/02/08 14:47:52;;;;;;;17.92;4.32;;;;;13.20;96699.00;;;;5053684;28;20041;-61
2024/02/08 14:53:05;;;;;;;14.85;5.15;;;;;13.10;96695.00;;;;5053465;28;20099;-62
2024/02/08 14:55:35;;;;;;;14.70;3.88;;;;;13.10;96692.00;;;;5052706;28;20579;-61
2024/02/08 14:58:02;;;;;;;19.80;4.43;;;;;13.10;96690.00;;;;5053101;28;20052;-61
2024/02/08 15:03:20;;;;;;;13.23;3.88;;;;;13.00;96692.00;;;;5053107;28;20055;-60
2024/02/08 15:05:47;;;;;;;16.23;4.88;;;;;13.00;96681.00;;;;5052708;28;20129;-61